sensor_id;sensor_type;location;lat;lon;timestamp;temperature;humidity
66190;DHT22;52992;52.084;5.412;2023-04-03T00:00:34;8.70;46.30
66190;DHT22;52992;52.084;5.412;2023-04-03T00:03:01;8.70;46.30
66190;DHT22;52992;52.084;5.412;2023-04-03T00:05:28;8.70;46.30
66190;DHT22;52992;52.084;5.412;2023-04-03T00:07:55;8.60;46.30
66190;DHT22;52992;52.084;5.412;2023-04-03T00:10:22;8.70;46.50
66190;DHT22;52992;52.084;5.412;2023-04-03T00:12:49;8.60;46.30
66190;DHT22;52992;52.084;5.412;2023-04-03T00:15:16;8.60;46.20
66190;DHT22;52992;52.084;5.412;2023-04-03T00:17:43;8.60;46.40
66190;DHT22;52992;52.084;5.412;2023-04-03T00:20:10;8.60;46.50
66190;DHT22;52992;52.084;5.412;2023-04-03T00:22:37;8.60;46.60
66190;DHT22;52992;52.084;5.412;2023-04-03T00:25:04;8.60;46.60
66190;DHT22;52992;52.084;5.412;2023-04-03T00:27:31;8.60;46.80
66190;DHT22;52992;52.084;5.412;2023-04-03T00:29:58;8.50;47.00
66190;DHT22;52992;52.084;5.412;2023-04-03T00:32:25;8.50;47.00
66190;DHT22;52992;52.084;5.412;2023-04-03T00:34:52;8.50;47.00
66190;DHT22;52992;52.084;5.412;2023-04-03T00:37:19;8.50;47.00
66190;DHT22;52992;52.084;5.412;2023-04-03T00:39:46;8.50;47.10
66190;DHT22;52992;52.084;5.412;2023-04-03T00:42:12;8.40;47.10
66190;DHT22;52992;52.084;5.412;2023-04-03T00:47:09;8.40;47.00
66190;DHT22;52992;52.084;5.412;2023-04-03T00:49:38;8.40;47.30
66190;DHT22;52992;52.084;5.412;2023-04-03T00:52:13;8.40;47.40
66190;DHT22;52992;52.084;5.412;2023-04-03T00:54:43;8.40;47.50
66190;DHT22;52992;52.084;5.412;2023-04-03T00:57:12;8.40;47.60
66190;DHT22;52992;52.084;5.412;2023-04-03T00:59:44;8.40;47.90
66190;DHT22;52992;52.084;5.412;2023-04-03T01:02:11;8.40;47.80
66190;DHT22;52992;52.084;5.412;2023-04-03T01:04:41;8.30;48.00
66190;DHT22;52992;52.084;5.412;2023-04-03T01:07:31;8.30;48.20
66190;DHT22;52992;52.084;5.412;2023-04-03T01:10:02;8.30;48.10
66190;DHT22;52992;52.084;5.412;2023-04-03T01:12:36;8.30;48.30
66190;DHT22;52992;52.084;5.412;2023-04-03T01:15:16;8.30;48.50
66190;DHT22;52992;52.084;5.412;2023-04-03T01:17:50;8.30;48.50
66190;DHT22;52992;52.084;5.412;2023-04-03T01:25:43;8.30;49.00
66190;DHT22;52992;52.084;5.412;2023-04-03T01:28:14;8.30;49.10
66190;DHT22;52992;52.084;5.412;2023-04-03T01:30:53;8.20;49.00
66190;DHT22;52992;52.084;5.412;2023-04-03T01:33:23;8.20;49.20
66190;DHT22;52992;52.084;5.412;2023-04-03T01:35:51;8.20;49.20
66190;DHT22;52992;52.084;5.412;2023-04-03T01:38:18;8.20;49.30
66190;DHT22;52992;52.084;5.412;2023-04-03T01:40:45;8.20;49.40
66190;DHT22;52992;52.084;5.412;2023-04-03T01:43:12;8.20;49.50
66190;DHT22;52992;52.084;5.412;2023-04-03T01:45:39;8.10;49.50
66190;DHT22;52992;52.084;5.412;2023-04-03T01:48:06;8.10;49.60
66190;DHT22;52992;52.084;5.412;2023-04-03T01:50:33;8.10;49.60
66190;DHT22;52992;52.084;5.412;2023-04-03T01:53:01;8.00;49.70
66190;DHT22;52992;52.084;5.412;2023-04-03T01:55:28;8.00;49.80
66190;DHT22;52992;52.084;5.412;2023-04-03T01:57:54;8.00;49.90
66190;DHT22;52992;52.084;5.412;2023-04-03T02:00:21;8.00;50.00
66190;DHT22;52992;52.084;5.412;2023-04-03T02:02:49;8.00;49.90
66190;DHT22;52992;52.084;5.412;2023-04-03T02:05:16;8.00;50.00
66190;DHT22;52992;52.084;5.412;2023-04-03T02:07:43;8.00;50.10
66190;DHT22;52992;52.084;5.412;2023-04-03T02:10:10;7.90;50.10
66190;DHT22;52992;52.084;5.412;2023-04-03T02:12:37;7.90;50.20
66190;DHT22;52992;52.084;5.412;2023-04-03T02:15:05;7.90;50.40
66190;DHT22;52992;52.084;5.412;2023-04-03T02:17:32;7.90;50.50
66190;DHT22;52992;52.084;5.412;2023-04-03T02:19:59;7.80;50.40
66190;DHT22;52992;52.084;5.412;2023-04-03T02:22:25;7.80;50.60
66190;DHT22;52992;52.084;5.412;2023-04-03T02:24:52;7.80;50.70
66190;DHT22;52992;52.084;5.412;2023-04-03T02:27:20;7.80;50.70
66190;DHT22;52992;52.084;5.412;2023-04-03T02:29:48;7.70;50.80
66190;DHT22;52992;52.084;5.412;2023-04-03T02:32:15;7.70;50.80
66190;DHT22;52992;52.084;5.412;2023-04-03T02:34:43;7.80;50.80
66190;DHT22;52992;52.084;5.412;2023-04-03T02:37:12;7.70;50.90
66190;DHT22;52992;52.084;5.412;2023-04-03T02:39:39;7.70;50.90
66190;DHT22;52992;52.084;5.412;2023-04-03T02:42:06;7.70;51.10
66190;DHT22;52992;52.084;5.412;2023-04-03T02:44:33;7.60;51.20
66190;DHT22;52992;52.084;5.412;2023-04-03T02:47:01;7.60;51.20
66190;DHT22;52992;52.084;5.412;2023-04-03T02:49:28;7.60;51.30
66190;DHT22;52992;52.084;5.412;2023-04-03T02:51:55;7.60;51.30
66190;DHT22;52992;52.084;5.412;2023-04-03T02:54:22;7.60;51.40
66190;DHT22;52992;52.084;5.412;2023-04-03T02:56:53;7.60;51.40
66190;DHT22;52992;52.084;5.412;2023-04-03T02:59:21;7.50;51.40
66190;DHT22;52992;52.084;5.412;2023-04-03T03:01:48;7.50;51.50
66190;DHT22;52992;52.084;5.412;2023-04-03T03:04:15;7.50;51.50
66190;DHT22;52992;52.084;5.412;2023-04-03T03:06:42;7.50;51.50
66190;DHT22;52992;52.084;5.412;2023-04-03T03:09:10;7.50;51.60
66190;DHT22;52992;52.084;5.412;2023-04-03T03:11:37;7.40;51.60
66190;DHT22;52992;52.084;5.412;2023-04-03T03:14:04;7.30;51.50
66190;DHT22;52992;52.084;5.412;2023-04-03T03:16:32;7.40;51.50
66190;DHT22;52992;52.084;5.412;2023-04-03T03:18:59;7.40;51.60
66190;DHT22;52992;52.084;5.412;2023-04-03T03:21:27;7.30;51.60
66190;DHT22;52992;52.084;5.412;2023-04-03T03:23:54;7.30;51.70
66190;DHT22;52992;52.084;5.412;2023-04-03T03:26:21;7.30;51.80
66190;DHT22;52992;52.084;5.412;2023-04-03T03:28:51;7.30;51.80
66190;DHT22;52992;52.084;5.412;2023-04-03T03:31:18;7.30;51.90
66190;DHT22;52992;52.084;5.412;2023-04-03T03:33:45;7.20;52.50
66190;DHT22;52992;52.084;5.412;2023-04-03T03:36:12;7.20;51.90
66190;DHT22;52992;52.084;5.412;2023-04-03T03:38:40;7.20;52.10
66190;DHT22;52992;52.084;5.412;2023-04-03T03:41:08;7.20;52.30
66190;DHT22;52992;52.084;5.412;2023-04-03T03:43:36;7.10;52.20
66190;DHT22;52992;52.084;5.412;2023-04-03T03:46:05;7.20;53.10
66190;DHT22;52992;52.084;5.412;2023-04-03T03:48:32;7.10;52.30
66190;DHT22;52992;52.084;5.412;2023-04-03T03:50:59;7.10;52.40
66190;DHT22;52992;52.084;5.412;2023-04-03T03:53:30;7.10;52.50
66190;DHT22;52992;52.084;5.412;2023-04-03T03:56:02;7.10;52.60
66190;DHT22;52992;52.084;5.412;2023-04-03T03:58:30;7.00;52.50
66190;DHT22;52992;52.084;5.412;2023-04-03T04:01:03;7.00;52.40
66190;DHT22;52992;52.084;5.412;2023-04-03T04:03:34;7.00;52.50
66190;DHT22;52992;52.084;5.412;2023-04-03T04:06:01;7.00;52.50
66190;DHT22;52992;52.084;5.412;2023-04-03T04:08:28;6.90;52.70
66190;DHT22;52992;52.084;5.412;2023-04-03T04:10:55;6.90;52.70
66190;DHT22;52992;52.084;5.412;2023-04-03T04:13:22;6.90;52.80
66190;DHT22;52992;52.084;5.412;2023-04-03T04:15:50;6.90;52.80
66190;DHT22;52992;52.084;5.412;2023-04-03T04:18:17;6.90;52.80
66190;DHT22;52992;52.084;5.412;2023-04-03T04:20:48;6.90;52.80
66190;DHT22;52992;52.084;5.412;2023-04-03T04:23:17;6.90;53.00
66190;DHT22;52992;52.084;5.412;2023-04-03T04:25:48;6.90;53.00
66190;DHT22;52992;52.084;5.412;2023-04-03T04:28:15;6.90;53.00
66190;DHT22;52992;52.084;5.412;2023-04-03T04:30:44;6.90;53.10
66190;DHT22;52992;52.084;5.412;2023-04-03T04:33:14;6.80;53.00
66190;DHT22;52992;52.084;5.412;2023-04-03T04:35:42;6.80;52.90
66190;DHT22;52992;52.084;5.412;2023-04-03T04:38:11;6.80;52.90
66190;DHT22;52992;52.084;5.412;2023-04-03T04:40:37;6.80;53.00
66190;DHT22;52992;52.084;5.412;2023-04-03T04:43:05;6.80;53.10
66190;DHT22;52992;52.084;5.412;2023-04-03T04:45:34;6.70;53.20
66190;DHT22;52992;52.084;5.412;2023-04-03T04:48:02;6.70;53.40
66190;DHT22;52992;52.084;5.412;2023-04-03T04:50:29;6.70;53.40
66190;DHT22;52992;52.084;5.412;2023-04-03T04:52:56;6.70;53.40
66190;DHT22;52992;52.084;5.412;2023-04-03T04:55:23;6.70;53.40
66190;DHT22;52992;52.084;5.412;2023-04-03T04:57:50;6.70;54.20
66190;DHT22;52992;52.084;5.412;2023-04-03T05:00:19;6.70;53.60
66190;DHT22;52992;52.084;5.412;2023-04-03T05:02:47;6.60;53.50
66190;DHT22;52992;52.084;5.412;2023-04-03T05:05:14;6.60;53.50
66190;DHT22;52992;52.084;5.412;2023-04-03T05:07:42;6.60;53.60
66190;DHT22;52992;52.084;5.412;2023-04-03T05:10:09;6.70;53.70
66190;DHT22;52992;52.084;5.412;2023-04-03T05:12:37;6.60;53.60
66190;DHT22;52992;52.084;5.412;2023-04-03T05:15:05;6.60;53.60
66190;DHT22;52992;52.084;5.412;2023-04-03T05:17:32;6.60;53.70
66190;DHT22;52992;52.084;5.412;2023-04-03T05:20:00;6.60;53.80
66190;DHT22;52992;52.084;5.412;2023-04-03T05:22:28;6.70;53.90
66190;DHT22;52992;52.084;5.412;2023-04-03T05:25:00;6.60;53.70
66190;DHT22;52992;52.084;5.412;2023-04-03T05:27:27;6.70;53.80
66190;DHT22;52992;52.084;5.412;2023-04-03T05:29:57;6.70;53.70
66190;DHT22;52992;52.084;5.412;2023-04-03T05:32:24;6.70;53.70
66190;DHT22;52992;52.084;5.412;2023-04-03T05:35:06;6.70;53.70
66190;DHT22;52992;52.084;5.412;2023-04-03T05:37:34;6.70;53.70
66190;DHT22;52992;52.084;5.412;2023-04-03T05:40:03;6.70;53.70
66190;DHT22;52992;52.084;5.412;2023-04-03T05:42:31;6.70;53.70
66190;DHT22;52992;52.084;5.412;2023-04-03T05:44:59;6.80;53.70
66190;DHT22;52992;52.084;5.412;2023-04-03T05:47:26;6.70;53.70
66190;DHT22;52992;52.084;5.412;2023-04-03T05:49:53;6.80;53.70
66190;DHT22;52992;52.084;5.412;2023-04-03T05:52:26;6.80;53.70
66190;DHT22;52992;52.084;5.412;2023-04-03T05:54:55;6.80;53.80
66190;DHT22;52992;52.084;5.412;2023-04-03T05:57:25;6.90;53.70
66190;DHT22;52992;52.084;5.412;2023-04-03T05:59:53;6.90;53.60
66190;DHT22;52992;52.084;5.412;2023-04-03T06:02:22;6.90;53.50
66190;DHT22;52992;52.084;5.412;2023-04-03T06:04:50;6.90;53.50
66190;DHT22;52992;52.084;5.412;2023-04-03T06:07:23;7.00;53.30
66190;DHT22;52992;52.084;5.412;2023-04-03T06:09:51;7.00;53.40
66190;DHT22;52992;52.084;5.412;2023-04-03T06:12:18;7.10;53.30
66190;DHT22;52992;52.084;5.412;2023-04-03T06:14:45;7.20;53.20
66190;DHT22;52992;52.084;5.412;2023-04-03T06:17:15;7.20;52.90
66190;DHT22;52992;52.084;5.412;2023-04-03T06:19:43;7.30;52.80
66190;DHT22;52992;52.084;5.412;2023-04-03T06:22:10;7.40;52.70
66190;DHT22;52992;52.084;5.412;2023-04-03T06:24:38;7.40;52.60
66190;DHT22;52992;52.084;5.412;2023-04-03T06:27:06;7.50;52.70
66190;DHT22;52992;52.084;5.412;2023-04-03T06:29:32;7.60;52.60
66190;DHT22;52992;52.084;5.412;2023-04-03T06:31:59;7.70;52.50
66190;DHT22;52992;52.084;5.412;2023-04-03T06:34:26;7.60;52.30
66190;DHT22;52992;52.084;5.412;2023-04-03T06:36:54;7.60;52.00
66190;DHT22;52992;52.084;5.412;2023-04-03T06:39:21;7.70;52.30
66190;DHT22;52992;52.084;5.412;2023-04-03T06:41:50;7.70;52.20
66190;DHT22;52992;52.084;5.412;2023-04-03T06:44:24;7.80;52.00
66190;DHT22;52992;52.084;5.412;2023-04-03T06:46:52;7.90;52.10
66190;DHT22;52992;52.084;5.412;2023-04-03T06:49:22;7.90;51.80
66190;DHT22;52992;52.084;5.412;2023-04-03T06:51:48;8.00;51.70
66190;DHT22;52992;52.084;5.412;2023-04-03T06:54:16;8.10;51.60
66190;DHT22;52992;52.084;5.412;2023-04-03T06:56:43;8.10;51.40
66190;DHT22;52992;52.084;5.412;2023-04-03T06:59:12;8.30;50.80
66190;DHT22;52992;52.084;5.412;2023-04-03T07:01:40;8.30;50.80
66190;DHT22;52992;52.084;5.412;2023-04-03T07:04:08;8.40;50.40
66190;DHT22;52992;52.084;5.412;2023-04-03T07:06:35;8.70;50.20
66190;DHT22;52992;52.084;5.412;2023-04-03T07:09:02;8.90;50.30
66190;DHT22;52992;52.084;5.412;2023-04-03T07:11:29;9.10;49.90
66190;DHT22;52992;52.084;5.412;2023-04-03T07:13:57;9.30;49.60
66190;DHT22;52992;52.084;5.412;2023-04-03T07:16:24;9.50;49.20
66190;DHT22;52992;52.084;5.412;2023-04-03T07:18:51;9.70;49.70
66190;DHT22;52992;52.084;5.412;2023-04-03T07:21:18;10.00;48.60
66190;DHT22;52992;52.084;5.412;2023-04-03T07:23:45;10.20;48.70
66190;DHT22;52992;52.084;5.412;2023-04-03T07:26:12;10.50;48.30
66190;DHT22;52992;52.084;5.412;2023-04-03T07:28:38;10.70;48.20
66190;DHT22;52992;52.084;5.412;2023-04-03T07:31:11;10.90;47.90
66190;DHT22;52992;52.084;5.412;2023-04-03T07:33:40;11.20;47.00
66190;DHT22;52992;52.084;5.412;2023-04-03T07:36:08;11.40;46.70
66190;DHT22;52992;52.084;5.412;2023-04-03T07:38:36;11.50;45.70
66190;DHT22;52992;52.084;5.412;2023-04-03T07:41:04;11.60;45.00
66190;DHT22;52992;52.084;5.412;2023-04-03T07:43:31;11.80;44.80
66190;DHT22;52992;52.084;5.412;2023-04-03T07:45:58;12.00;44.50
66190;DHT22;52992;52.084;5.412;2023-04-03T07:48:26;12.30;44.10
66190;DHT22;52992;52.084;5.412;2023-04-03T07:50:53;12.60;43.20
66190;DHT22;52992;52.084;5.412;2023-04-03T07:53:20;12.70;42.20
66190;DHT22;52992;52.084;5.412;2023-04-03T07:55:48;12.70;42.10
66190;DHT22;52992;52.084;5.412;2023-04-03T07:58:18;12.70;42.70
66190;DHT22;52992;52.084;5.412;2023-04-03T08:00:45;12.90;42.70
66190;DHT22;52992;52.084;5.412;2023-04-03T08:03:13;13.10;43.60
66190;DHT22;52992;52.084;5.412;2023-04-03T08:05:42;13.30;43.60
66190;DHT22;52992;52.084;5.412;2023-04-03T08:08:11;13.60;41.00
66190;DHT22;52992;52.084;5.412;2023-04-03T08:10:39;13.70;42.10
66190;DHT22;52992;52.084;5.412;2023-04-03T08:13:07;13.80;41.10
66190;DHT22;52992;52.084;5.412;2023-04-03T08:15:34;13.90;41.00
66190;DHT22;52992;52.084;5.412;2023-04-03T08:18:04;13.90;40.40
66190;DHT22;52992;52.084;5.412;2023-04-03T08:20:31;13.90;38.80
66190;DHT22;52992;52.084;5.412;2023-04-03T08:22:58;13.90;39.50
66190;DHT22;52992;52.084;5.412;2023-04-03T08:25:24;13.90;37.50
66190;DHT22;52992;52.084;5.412;2023-04-03T08:27:51;14.00;38.20
66190;DHT22;52992;52.084;5.412;2023-04-03T08:30:18;14.10;39.00
66190;DHT22;52992;52.084;5.412;2023-04-03T08:32:45;14.40;39.20
66190;DHT22;52992;52.084;5.412;2023-04-03T08:35:12;14.70;39.40
66190;DHT22;52992;52.084;5.412;2023-04-03T08:37:40;14.80;39.80
66190;DHT22;52992;52.084;5.412;2023-04-03T08:40:11;15.00;37.10
66190;DHT22;52992;52.084;5.412;2023-04-03T08:42:53;15.10;35.90
66190;DHT22;52992;52.084;5.412;2023-04-03T08:45:48;15.20;36.90
66190;DHT22;52992;52.084;5.412;2023-04-03T08:48:19;15.30;35.90
66190;DHT22;52992;52.084;5.412;2023-04-03T08:50:49;15.40;35.90
66190;DHT22;52992;52.084;5.412;2023-04-03T08:53:21;15.60;34.20
66190;DHT22;52992;52.084;5.412;2023-04-03T08:55:53;16.10;33.70
66190;DHT22;52992;52.084;5.412;2023-04-03T08:58:26;16.80;31.50
66190;DHT22;52992;52.084;5.412;2023-04-03T09:03:42;18.50;30.80
66190;DHT22;52992;52.084;5.412;2023-04-03T09:06:19;18.90;28.60
66190;DHT22;52992;52.084;5.412;2023-04-03T09:18:13;20.70;25.30
66190;DHT22;52992;52.084;5.412;2023-04-03T09:21:13;21.90;24.40
66190;DHT22;52992;52.084;5.412;2023-04-03T09:23:47;22.80;22.30
66190;DHT22;52992;52.084;5.412;2023-04-03T09:26:30;23.50;20.60
66190;DHT22;52992;52.084;5.412;2023-04-03T09:29:06;23.80;20.10
66190;DHT22;52992;52.084;5.412;2023-04-03T09:31:42;24.20;19.30
66190;DHT22;52992;52.084;5.412;2023-04-03T09:34:35;24.50;17.90
66190;DHT22;52992;52.084;5.412;2023-04-03T09:37:03;24.70;17.00
66190;DHT22;52992;52.084;5.412;2023-04-03T09:39:49;25.10;18.30
66190;DHT22;52992;52.084;5.412;2023-04-03T09:42:22;25.90;16.80
66190;DHT22;52992;52.084;5.412;2023-04-03T09:44:58;26.60;16.80
66190;DHT22;52992;52.084;5.412;2023-04-03T09:47:28;27.10;16.10
66190;DHT22;52992;52.084;5.412;2023-04-03T09:52:46;27.80;15.60
66190;DHT22;52992;52.084;5.412;2023-04-03T09:55:19;28.30;16.50
66190;DHT22;52992;52.084;5.412;2023-04-03T09:57:59;29.00;15.90
66190;DHT22;52992;52.084;5.412;2023-04-03T10:00:37;29.30;14.50
66190;DHT22;52992;52.084;5.412;2023-04-03T10:03:31;29.50;14.00
66190;DHT22;52992;52.084;5.412;2023-04-03T10:06:00;29.90;14.30
66190;DHT22;52992;52.084;5.412;2023-04-03T10:08:34;30.70;14.10
66190;DHT22;52992;52.084;5.412;2023-04-03T10:13:54;32.00;11.10
66190;DHT22;52992;52.084;5.412;2023-04-03T10:29:55;33.90;10.10
66190;DHT22;52992;52.084;5.412;2023-04-03T10:35:34;34.30;9.40
66190;DHT22;52992;52.084;5.412;2023-04-03T10:38:20;34.40;9.10
66190;DHT22;52992;52.084;5.412;2023-04-03T10:41:16;35.30;9.90
66190;DHT22;52992;52.084;5.412;2023-04-03T10:46:18;37.60;9.50
66190;DHT22;52992;52.084;5.412;2023-04-03T10:57:28;38.90;8.00
66190;DHT22;52992;52.084;5.412;2023-04-03T11:00:03;39.20;8.10
66190;DHT22;52992;52.084;5.412;2023-04-03T11:02:45;39.20;8.00
66190;DHT22;52992;52.084;5.412;2023-04-03T11:05:21;39.50;8.60
66190;DHT22;52992;52.084;5.412;2023-04-03T11:07:53;39.90;7.50
66190;DHT22;52992;52.084;5.412;2023-04-03T11:13:11;39.50;7.70
66190;DHT22;52992;52.084;5.412;2023-04-03T11:15:39;39.20;8.20
66190;DHT22;52992;52.084;5.412;2023-04-03T11:18:17;39.20;7.80
66190;DHT22;52992;52.084;5.412;2023-04-03T11:20:56;39.00;8.50
66190;DHT22;52992;52.084;5.412;2023-04-03T11:23:26;39.30;8.50
66190;DHT22;52992;52.084;5.412;2023-04-03T11:26:16;39.90;8.50
66190;DHT22;52992;52.084;5.412;2023-04-03T11:28:43;40.90;8.20
66190;DHT22;52992;52.084;5.412;2023-04-03T11:34:08;41.00;7.60
66190;DHT22;52992;52.084;5.412;2023-04-03T11:36:50;40.90;7.30
66190;DHT22;52992;52.084;5.412;2023-04-03T11:39:21;41.10;8.00
66190;DHT22;52992;52.084;5.412;2023-04-03T11:41:49;41.30;7.50
66190;DHT22;52992;52.084;5.412;2023-04-03T11:44:37;41.40;7.90
66190;DHT22;52992;52.084;5.412;2023-04-03T11:47:07;42.00;8.40
66190;DHT22;52992;52.084;5.412;2023-04-03T12:08:52;43.10;8.70
66190;DHT22;52992;52.084;5.412;2023-04-03T12:11:30;44.10;8.10
66190;DHT22;52992;52.084;5.412;2023-04-03T12:19:31;44.20;8.10
66190;DHT22;52992;52.084;5.412;2023-04-03T12:22:19;44.20;7.20
66190;DHT22;52992;52.084;5.412;2023-04-03T12:24:50;44.10;8.40
66190;DHT22;52992;52.084;5.412;2023-04-03T12:27:38;44.20;7.50
66190;DHT22;52992;52.084;5.412;2023-04-03T12:30:25;43.80;7.60
66190;DHT22;52992;52.084;5.412;2023-04-03T12:33:38;43.70;7.70
66190;DHT22;52992;52.084;5.412;2023-04-03T12:36:33;44.10;8.20
66190;DHT22;52992;52.084;5.412;2023-04-03T12:39:48;44.40;7.10
66190;DHT22;52992;52.084;5.412;2023-04-03T12:41:56;44.10;7.80
66190;DHT22;52992;52.084;5.412;2023-04-03T12:47:02;43.70;7.40
66190;DHT22;52992;52.084;5.412;2023-04-03T12:49:39;43.50;7.30
66190;DHT22;52992;52.084;5.412;2023-04-03T12:52:28;42.30;6.50
66190;DHT22;52992;52.084;5.412;2023-04-03T12:54:57;41.20;7.40
66190;DHT22;52992;52.084;5.412;2023-04-03T12:57:25;40.80;8.00
66190;DHT22;52992;52.084;5.412;2023-04-03T12:59:54;40.90;7.80
66190;DHT22;52992;52.084;5.412;2023-04-03T13:02:29;40.80;8.00
66190;DHT22;52992;52.084;5.412;2023-04-03T13:04:59;40.10;8.10
66190;DHT22;52992;52.084;5.412;2023-04-03T13:07:33;39.80;8.40
66190;DHT22;52992;52.084;5.412;2023-04-03T13:12:30;40.70;7.70
66190;DHT22;52992;52.084;5.412;2023-04-03T13:15:02;40.50;8.90
66190;DHT22;52992;52.084;5.412;2023-04-03T13:17:31;39.80;7.70
66190;DHT22;52992;52.084;5.412;2023-04-03T13:20:11;39.00;9.00
66190;DHT22;52992;52.084;5.412;2023-04-03T13:22:51;38.70;7.80
66190;DHT22;52992;52.084;5.412;2023-04-03T13:25:21;38.80;8.00
66190;DHT22;52992;52.084;5.412;2023-04-03T13:27:48;38.40;9.20
66190;DHT22;52992;52.084;5.412;2023-04-03T13:32:55;37.90;8.70
66190;DHT22;52992;52.084;5.412;2023-04-03T13:35:36;37.20;9.60
66190;DHT22;52992;52.084;5.412;2023-04-03T13:40:58;36.50;10.20
66190;DHT22;52992;52.084;5.412;2023-04-03T13:43:29;36.90;8.50
66190;DHT22;52992;52.084;5.412;2023-04-03T13:46:20;37.00;9.50
66190;DHT22;52992;52.084;5.412;2023-04-03T13:48:54;36.70;9.40
66190;DHT22;52992;52.084;5.412;2023-04-03T13:51:29;36.30;10.30
66190;DHT22;52992;52.084;5.412;2023-04-03T13:54:01;36.10;9.80
66190;DHT22;52992;52.084;5.412;2023-04-03T13:56:40;35.40;9.90
66190;DHT22;52992;52.084;5.412;2023-04-03T14:04:24;34.20;10.70
66190;DHT22;52992;52.084;5.412;2023-04-03T14:06:51;33.40;11.70
66190;DHT22;52992;52.084;5.412;2023-04-03T14:09:22;32.80;11.80
66190;DHT22;52992;52.084;5.412;2023-04-03T14:11:51;32.20;10.30
66190;DHT22;52992;52.084;5.412;2023-04-03T14:14:22;31.40;11.30
66190;DHT22;52992;52.084;5.412;2023-04-03T14:16:56;30.80;12.40
66190;DHT22;52992;52.084;5.412;2023-04-03T14:19:27;30.90;12.30
66190;DHT22;52992;52.084;5.412;2023-04-03T14:21:55;31.20;12.50
66190;DHT22;52992;52.084;5.412;2023-04-03T14:24:22;31.50;12.50
66190;DHT22;52992;52.084;5.412;2023-04-03T14:26:51;31.50;11.80
66190;DHT22;52992;52.084;5.412;2023-04-03T14:29:19;30.70;11.00
66190;DHT22;52992;52.084;5.412;2023-04-03T14:31:48;29.40;12.60
66190;DHT22;52992;52.084;5.412;2023-04-03T14:34:23;27.90;13.40
66190;DHT22;52992;52.084;5.412;2023-04-03T14:36:50;26.60;14.70
66190;DHT22;52992;52.084;5.412;2023-04-03T14:39:19;25.90;15.50
66190;DHT22;52992;52.084;5.412;2023-04-03T14:41:46;25.40;14.50
66190;DHT22;52992;52.084;5.412;2023-04-03T14:44:13;24.90;15.20
66190;DHT22;52992;52.084;5.412;2023-04-03T14:46:42;24.20;15.80
66190;DHT22;52992;52.084;5.412;2023-04-03T14:49:18;23.50;16.50
66190;DHT22;52992;52.084;5.412;2023-04-03T14:51:46;22.90;17.70
66190;DHT22;52992;52.084;5.412;2023-04-03T14:54:15;22.50;17.40
66190;DHT22;52992;52.084;5.412;2023-04-03T14:56:42;22.00;18.10
66190;DHT22;52992;52.084;5.412;2023-04-03T14:59:12;21.60;18.50
66190;DHT22;52992;52.084;5.412;2023-04-03T15:01:39;21.30;18.60
66190;DHT22;52992;52.084;5.412;2023-04-03T15:04:16;21.00;19.00
66190;DHT22;52992;52.084;5.412;2023-04-03T15:06:45;20.70;19.70
66190;DHT22;52992;52.084;5.412;2023-04-03T15:09:21;20.30;20.70
66190;DHT22;52992;52.084;5.412;2023-04-03T15:11:49;19.90;20.70
66190;DHT22;52992;52.084;5.412;2023-04-03T15:14:17;19.60;21.00
66190;DHT22;52992;52.084;5.412;2023-04-03T15:17:04;19.10;21.30
66190;DHT22;52992;52.084;5.412;2023-04-03T15:19:40;18.60;21.50
66190;DHT22;52992;52.084;5.412;2023-04-03T15:22:13;18.30;22.50
66190;DHT22;52992;52.084;5.412;2023-04-03T15:24:41;18.00;22.40
66190;DHT22;52992;52.084;5.412;2023-04-03T15:27:09;17.70;22.70
66190;DHT22;52992;52.084;5.412;2023-04-03T15:29:37;17.60;23.10
66190;DHT22;52992;52.084;5.412;2023-04-03T15:32:04;17.40;23.30
66190;DHT22;52992;52.084;5.412;2023-04-03T15:34:31;17.30;23.80
66190;DHT22;52992;52.084;5.412;2023-04-03T15:36:58;17.10;22.80
66190;DHT22;52992;52.084;5.412;2023-04-03T15:39:25;17.00;24.20
66190;DHT22;52992;52.084;5.412;2023-04-03T15:41:53;16.90;23.40
66190;DHT22;52992;52.084;5.412;2023-04-03T15:44:21;16.70;23.50
66190;DHT22;52992;52.084;5.412;2023-04-03T15:46:48;16.60;23.60
66190;DHT22;52992;52.084;5.412;2023-04-03T15:49:19;16.50;24.00
66190;DHT22;52992;52.084;5.412;2023-04-03T15:51:47;16.40;24.70
66190;DHT22;52992;52.084;5.412;2023-04-03T15:54:16;16.30;24.80
66190;DHT22;52992;52.084;5.412;2023-04-03T15:56:43;16.20;25.10
66190;DHT22;52992;52.084;5.412;2023-04-03T15:59:10;16.10;24.60
66190;DHT22;52992;52.084;5.412;2023-04-03T16:01:37;15.90;24.80
66190;DHT22;52992;52.084;5.412;2023-04-03T16:04:07;15.80;25.20
66190;DHT22;52992;52.084;5.412;2023-04-03T16:06:35;15.70;25.10
66190;DHT22;52992;52.084;5.412;2023-04-03T16:09:02;15.50;25.50
66190;DHT22;52992;52.084;5.412;2023-04-03T16:11:30;15.30;25.80
66190;DHT22;52992;52.084;5.412;2023-04-03T16:13:57;15.30;26.10
66190;DHT22;52992;52.084;5.412;2023-04-03T16:16:24;15.20;26.10
66190;DHT22;52992;52.084;5.412;2023-04-03T16:18:54;15.00;26.10
66190;DHT22;52992;52.084;5.412;2023-04-03T16:21:22;15.00;26.60
66190;DHT22;52992;52.084;5.412;2023-04-03T16:23:49;15.00;26.70
66190;DHT22;52992;52.084;5.412;2023-04-03T16:26:17;14.90;26.80
66190;DHT22;52992;52.084;5.412;2023-04-03T16:28:46;14.90;26.90
66190;DHT22;52992;52.084;5.412;2023-04-03T16:31:13;14.80;26.80
66190;DHT22;52992;52.084;5.412;2023-04-03T16:33:40;14.70;26.60
66190;DHT22;52992;52.084;5.412;2023-04-03T16:36:07;14.70;27.00
66190;DHT22;52992;52.084;5.412;2023-04-03T16:38:35;14.50;26.80
66190;DHT22;52992;52.084;5.412;2023-04-03T16:41:01;14.50;27.00
66190;DHT22;52992;52.084;5.412;2023-04-03T16:43:32;14.30;27.00
66190;DHT22;52992;52.084;5.412;2023-04-03T16:45:59;14.30;27.30
66190;DHT22;52992;52.084;5.412;2023-04-03T16:48:26;14.20;27.80
66190;DHT22;52992;52.084;5.412;2023-04-03T16:50:53;14.10;27.70
66190;DHT22;52992;52.084;5.412;2023-04-03T16:53:21;14.10;27.90
66190;DHT22;52992;52.084;5.412;2023-04-03T16:55:48;14.10;28.20
66190;DHT22;52992;52.084;5.412;2023-04-03T16:58:15;14.00;27.70
66190;DHT22;52992;52.084;5.412;2023-04-03T17:00:43;13.90;27.70
66190;DHT22;52992;52.084;5.412;2023-04-03T17:03:10;13.70;27.70
66190;DHT22;52992;52.084;5.412;2023-04-03T17:05:36;13.70;27.90
66190;DHT22;52992;52.084;5.412;2023-04-03T17:08:04;13.60;28.00
66190;DHT22;52992;52.084;5.412;2023-04-03T17:10:31;13.60;28.00
66190;DHT22;52992;52.084;5.412;2023-04-03T17:13:00;13.50;28.30
66190;DHT22;52992;52.084;5.412;2023-04-03T17:15:26;13.50;28.50
66190;DHT22;52992;52.084;5.412;2023-04-03T17:17:53;13.40;28.40
66190;DHT22;52992;52.084;5.412;2023-04-03T17:20:21;13.30;28.70
66190;DHT22;52992;52.084;5.412;2023-04-03T17:22:48;13.20;28.10
66190;DHT22;52992;52.084;5.412;2023-04-03T17:25:15;13.10;28.60
66190;DHT22;52992;52.084;5.412;2023-04-03T17:27:41;13.10;28.90
66190;DHT22;52992;52.084;5.412;2023-04-03T17:30:09;13.00;29.00
66190;DHT22;52992;52.084;5.412;2023-04-03T17:32:36;12.90;28.90
66190;DHT22;52992;52.084;5.412;2023-04-03T17:35:04;12.80;28.60
66190;DHT22;52992;52.084;5.412;2023-04-03T17:37:31;12.80;29.00